Preview of NWS' New Version of Forecast
This preview is not operational and should not be used for support decisions.

Terminal Aerodrome Forecast (TAF)

Issued by National Weather Service (NWS)

                            
000
FTUS42 KKEY 150910 AAA
TAFEYW
TAF AMD
KEYW 150910Z 1509/1606 34010KT P6SM SCT020
      TEMPO 1509/1513 36013G21KT BKN018=